Hilton Head Island, SC (29928)

2:37 PM EDT on August 04, 2015 (GMT -0400)
ZipLine Hilton Head | | Change Station
CLOSE
Current Station
Personal Weather Station
Location: Hilton Head Island, SC
Elevation: 46 ft
Nearby Weather Stations

Elev 46 ft 32.19 °N, 80.76 °W | Updated 12 seconds ago

Partly Cloudy
Partly Cloudy
90.7 °F
Feels Like 92 °F
N
4.9
Wind Variable Wind from SW
Gusts 7.4 mph

Today
High -- | Low -- °F
--% Chance of Precip.
Yesterday
High -- | Low -- °F
Precip. -- in
6:39 AM 8:17 PM
Waning Gibbous, 75% visible
Pressure 30.00 in
Visibility 10.0 miles
Clouds Scattered Clouds 2700 ft
Scattered Clouds 3500 ft
Heat Index 92 °F
Dew Point 64 °F
Humidity 41%
Rainfall 0.00 in
Snow Depth Not available.
UV 11 out of 12
Pollen 4.60 out of 12
Air Quality Not available.
Flu Activity Not available.
METAR KHXD 041750Z 00000KT 10SM SCT027 SCT035 31/23 A3000

More Conditions Fewer Conditions

Pressure 30.00 in
Visibility 10.0 miles
Clouds Scattered Clouds 2700 ft
Scattered Clouds 3500 ft
Heat Index 92 °F
Dew Point 64 °F
Humidity 41%
Rainfall 0.00 in
Snow Depth Not available.
UV 11 out of 12
Pollen 4.60 out of 12
Air Quality Not available.
Flu Activity Not available.
METAR KHXD 041750Z 00000KT 10SM SCT027 SCT035 31/23 A3000

More Conditions Fewer Conditions

10-Day Weather Forecast

×

Almanac

Astronomy

Aug. 04, 2015 Rise Set
Actual Time
Civil Twilight
Nautical Twilight
Astronomical Twilight
Moon
Length of Visible Light
Length of Day
Tomorrow will be .
, % of the Moon is Illuminated

Today's Extremes

State Highs State Lows

Community

WunderPhotos

Upload Photos

1,843,937 photos uploaded!

WunderBlogs® & News

Nearby

Air Quality

  Air Quality AQ Index Pollutant
Not available.

Snow Depth

Station Depth Elevation

Earthquake Activity

City Distance Mag. Time & Date
Minimum magnitude displayed is 2.5.

Coastal Water Temperatures

Place Temperature

Stations

Nearby Weather Stations

Station Location Temp. Windchill Dew Point Humidity Wind Precip. Elev Updated Type